Flight Track Log - Related Links

Times and Time Zones

All times are in EDT time to prevent confusion due to time zone crossing. See the SWA3675 flight status page for this flight to view local times or setup timezone preferences in your user account.

Time Position Orientation Groundspeed Altitude Reporting Facility
EDT Latitude Longitude Course Direction KTS MPH feet Rate Location/Type
Mon 09:20:46 PM 39.1333 -76.6667 211° Southwest 181 208 2,400  Level Potomac TRACON
Mon 09:21:46 PM 39.1667 -76.7500 297° West 234 269 5,000 2,975 Climbing Potomac TRACON
Mon 09:22:47 PM 39.1833 -76.8333 284° West 284 327 8,400 3,496 Climbing Potomac TRACON
Mon 09:23:53 PM 39.2167 -76.9500 290° West 298 343 12,400 2,950 Climbing Potomac TRACON
Mon 09:24:47 PM 39.1500 -77.0167 218° Southwest 329 379 14,300 2,479 Climbing Potomac TRACON
Mon 09:25:54 PM 39.0667 -77.0833 212° Southwest 351 404 17,400 2,439 Climbing Potomac TRACON
Mon 09:26:00 PM 39.1222 -77.2143 211° Southwest  Level FlightAware Approximate
Mon 09:28:21 PM 38.8561 -77.2578 213° Southwest 387 445 23,000  Level Washington Center
Mon 09:29:21 PM 38.7733 -77.3464 220° Southwest 392 451 23,000 353 Level Washington Center
Mon 09:30:20 PM 38.6886 -77.4375 220° Southwest 397 457 23,700 1,412 Climbing Washington Center
Mon 09:31:20 PM 38.6039 -77.5283 220° Southwest 397 457 25,800 2,050 Climbing Washington Center
Mon 09:32:20 PM 38.5189 -77.6192 220° Southwest 402 463 27,800 1,785 Climbing Washington Center
Mon 09:33:21 PM 38.4319 -77.7119 220° Southwest 410 472 29,400 1,765 Climbing Washington Center
Mon 09:34:19 PM 38.3425 -77.8075 220° Southwest 416 479 31,300 1,780 Climbing Washington Center
Mon 09:35:19 PM 38.2575 -77.8975 220° Southwest 411 473 32,900 1,488 Climbing Washington Center
Mon 09:36:20 PM 38.1681 -77.9925 220° Southwest 411 473 34,300 1,525 Climbing Washington Center
Mon 09:37:21 PM 38.0786 -78.0844 219° Southwest 411 473 36,000 1,966 Climbing Washington Center
Mon 09:38:19 PM 37.9950 -78.1897 225° Southwest 395 455 38,200 1,765 Climbing Washington Center
Mon 09:39:20 PM 37.9219 -78.2900 227° Southwest 388 447 39,500 885 Climbing Washington Center
Mon 09:40:21 PM 37.8506 -78.3953 229° Southwest 393 452 40,000 252 Climbing Washington Center
Mon 09:41:19 PM 37.7772 -78.4978 228° Southwest 393 452 40,000  Level Washington Center
Mon 09:42:19 PM 37.7144 -78.5897 229° Southwest 400 460 40,000  Level Washington Center
Mon 09:43:20 PM 37.6431 -78.6919 229° Southwest 400 460 40,000  Level Washington Center
Mon 09:44:20 PM 37.5694 -78.7936 228° Southwest 400 460 40,000  Level Washington Center
Mon 09:45:19 PM 37.4981 -78.8928 228° Southwest 400 460 40,000 -400 Level Washington Center
Mon 09:46:20 PM 37.4178 -79.0044 228° Southwest 400 460 39,200 -934 Descending Washington Center
Mon 09:47:21 PM 37.3439 -79.1056 227° Southwest 400 460 38,100 -1,210 Descending Washington Center
Mon 09:48:19 PM 37.2719 -79.2092 229° Southwest 400 460 36,800 -1,119 Descending Washington Center
Mon 09:49:19 PM 37.1858 -79.2939 218° Southwest 395 455 35,900 -1,190 Descending Washington Center
Mon 09:50:20 PM 37.0958 -79.3675 213° Southwest 395 455 34,400 -1,488 Descending Washington Center
Mon 09:51:20 PM 37.0144 -79.4339 213° Southwest 395 455 32,900 -1,513 Descending Washington Center
Mon 09:52:19 PM 36.9200 -79.5147 214° Southwest 404 465 31,400 -1,513 Descending Washington Center
Mon 09:53:19 PM 36.8258 -79.5906 213° Southwest 404 465 29,900 -1,537 Descending Washington Center
Mon 09:54:20 PM 36.7336 -79.6661 213° Southwest 404 465 28,300 -1,524 Descending Washington Center
Mon 09:56:28 PM 36.5425 -79.8192 213° Southwest 381 438 25,100 -1,532 Descending Atlanta Center
Mon 09:57:28 PM 36.4472 -79.8939 212° Southwest 381 438 23,500 -1,250 Descending Atlanta Center
Mon 09:58:28 PM 36.3803 -79.9489 213° Southwest 381 438 22,600 -750 Descending Atlanta Center
Mon 09:59:28 PM 36.2828 -80.0311 214° Southwest 368 423 22,000 -300 Descending Atlanta Center
Mon 10:00:28 PM 36.2036 -80.0994 215° Southwest 362 417 22,000 -250 Level Atlanta Center
Mon 10:01:28 PM 36.1283 -80.1622 214° Southwest 362 417 21,500 -4,500 Descending Atlanta Center
Mon 10:02:28 PM 36.0411 -80.2381 215° Southwest 356 410 13,000 -2,050 Descending Atlanta Center
Mon 10:03:28 PM 35.9742 -80.2953 215° Southwest 350 403 17,400 1,250 Climbing Atlanta Center
Mon 10:04:28 PM 35.8969 -80.3656 216° Southwest 335 386 15,500 -1,800 Descending Atlanta Center
Mon 10:05:28 PM 35.8256 -80.4250 214° Southwest 319 367 13,800 -1,451 Descending Atlanta Center
Mon 10:05:59 PM 35.7911 -80.4547 215° Southwest 294 338 13,300 -1,319 Descending Atlanta Center
Mon 10:06:59 PM 35.7300 -80.5058 214° Southwest 270 311 11,800 -1,513 Descending Atlanta Center
Mon 10:07:54 PM 35.6683 -80.5342 200° South 264 304 10,400 -1,483 Descending Atlanta Center
Mon 10:08:28 PM 35.6247 -80.5464 193° South 265 305 9,600 -1,021 Descending Atlanta Center
Mon 10:09:28 PM 35.5586 -80.5694 196° South 254 292 8,800 -850 Descending Atlanta Center
Mon 10:10:28 PM 35.5008 -80.5897 196° South 248 285 7,900 -1,050 Descending Atlanta Center
Mon 10:11:28 PM 35.4453 -80.6228 206° Southwest 238 274 6,700 -1,000 Descending Atlanta Center
Mon 10:12:28 PM 35.4011 -80.6856 229° Southwest 238 274 5,900 -1,080 Descending Atlanta Center
Mon 10:13:58 PM 35.3369 -80.7775 229° Southwest 218 251 4,000 -1,160 Descending Atlanta Center
Mon 10:14:58 PM 35.3008 -80.8272 228° Southwest 177 204 3,000 -893 Descending Atlanta Center
Mon 10:15:59 PM 35.2683 -80.8667 225° Southwest 165 190 2,200 -738 Descending Atlanta Center
Mon 10:17:00 PM 35.2464 -80.9006 232° Southwest 132 152 1,500 -689 Descending Atlanta Center
Mon 10:19:00 PM 35.2000 -80.9333 219° Southwest  Level FlightAware Approximate
Mon 10:26:00 PM 35.2137 -80.9491 219° Southwest  Level Estimated

Login

Don't have an account? Register now (free) for customized features, flight alerts, and more!